createdAt,value
2016-08-06T00:00:27.997Z,53.50
2016-08-06T00:01:10.525Z,is
2016-08-06T00:02:26.565Z,53.50
2016-08-06T00:03:27.593Z,53.50
2016-08-06T00:04:14.890Z,53.50
2016-08-06T00:05:22.729Z,53.60
2016-08-06T00:06:25.589Z,53.50
2016-08-06T00:07:29.369Z,53.70
2016-08-06T00:08:22.425Z,53.50
2016-08-06T00:09:21.248Z,53.60
2016-08-06T00:10:26.467Z,53.50
2016-08-06T00:11:13.422Z,is
2016-08-06T00:12:16.621Z,is
2016-08-06T00:13:27.346Z,53.60
2016-08-06T00:14:22.109Z,53.60
2016-08-06T00:15:25.583Z,53.50
2016-08-06T00:16:28.355Z,53.60
2016-08-06T00:17:16.541Z,53.50
2016-08-06T00:18:30.370Z,53.50
2016-08-06T00:19:22.385Z,53.50
2016-08-06T00:20:28.653Z,53.50
2016-08-06T00:21:15.882Z,53.60
2016-08-06T00:22:23.310Z,53.50
2016-08-06T00:23:27.475Z,53.60
2016-08-06T00:24:23.021Z,53.50
2016-08-06T00:25:13.817Z,53.50
2016-08-06T00:26:29.171Z,53.50
2016-08-06T00:27:27.787Z,53.50
2016-08-06T00:28:21.607Z,53.50
2016-08-06T00:29:24.389Z,53.50
2016-08-06T00:30:28.399Z,53.50
2016-08-06T00:31:25.390Z,53.50
2016-08-06T00:32:32.040Z,53.50
2016-08-06T00:33:14.618Z,53.60
2016-08-06T00:34:31.794Z,53.60
2016-08-06T00:35:22.715Z,53.40
2016-08-06T00:36:22.547Z,53.50
2016-08-06T00:37:20.198Z,53.50
2016-08-06T00:38:34.387Z,53.50
2016-08-06T00:39:24.523Z,53.50
2016-08-06T00:40:28.308Z,53.60
2016-08-06T00:41:28.890Z,53.50
2016-08-06T00:42:15.933Z,is
2016-08-06T00:43:18.823Z,53.60
2016-08-06T00:44:13.019Z,53.50
2016-08-06T00:45:11.584Z,53.50
2016-08-06T00:46:12.394Z,53.50
2016-08-06T00:47:22.634Z,53.50
2016-08-06T00:48:27.273Z,53.50
2016-08-06T00:49:22.406Z,53.50
2016-08-06T00:50:22.144Z,53.50
2016-08-06T00:51:20.152Z,53.50
2016-08-06T00:52:26.959Z,53.50
2016-08-06T00:53:20.522Z,53.50
2016-08-06T00:54:22.686Z,53.60
2016-08-06T00:55:26.648Z,53.50
2016-08-06T00:56:26.561Z,53.60
2016-08-06T00:57:21.568Z,53.50
2016-08-06T00:58:19.712Z,53.50
2016-08-06T00:59:26.041Z,53.50
2016-08-06T01:00:26.890Z,53.60
2016-08-06T01:01:14.874Z,53.60
2016-08-06T01:02:31.430Z,53.50
2016-08-06T01:03:22.609Z,53.50
2016-08-06T01:04:22.618Z,53.60
2016-08-06T01:05:27.292Z,53.60
2016-08-06T01:06:29.005Z,53.60
2016-08-06T01:07:13.254Z,53.60
2016-08-06T01:08:26.590Z,53.50
2016-08-06T01:09:16.289Z,53.50
2016-08-06T01:10:20.707Z,53.60
2016-08-06T01:11:26.012Z,53.50
2016-08-06T01:12:23.444Z,53.50
2016-08-06T01:13:27.737Z,53.60
2016-08-06T01:14:18.544Z,53.50
2016-08-06T01:16:18.553Z,53.60
2016-08-06T01:17:13.445Z,is
2016-08-06T01:18:23.685Z,53.50
2016-08-06T01:19:15.383Z,53.60
2016-08-06T01:20:27.969Z,53.50
2016-08-06T01:21:22.642Z,53.50
2016-08-06T01:22:19.538Z,53.60
2016-08-06T01:23:13.256Z,53.50
2016-08-06T01:24:14.866Z,53.50
2016-08-06T01:25:25.921Z,53.50
2016-08-06T01:26:24.724Z,53.50
2016-08-06T01:27:27.551Z,53.50
2016-08-06T01:28:20.768Z,53.40
2016-08-06T01:29:27.113Z,53.30
2016-08-06T01:30:32.756Z,53.50
2016-08-06T01:31:22.288Z,53.50
2016-08-06T01:32:27.349Z,53.40
2016-08-06T01:33:12.913Z,53.40
2016-08-06T01:34:13.369Z,53.50
2016-08-06T01:35:22.984Z,53.50
2016-08-06T01:36:32.472Z,53.50
2016-08-06T01:37:13.500Z,53.50
2016-08-06T01:38:27.372Z,53.50
2016-08-06T01:39:28.282Z,53.40
2016-08-06T01:40:25.861Z,53.40
2016-08-06T01:41:28.789Z,53.50
2016-08-06T01:42:28.276Z,53.30
2016-08-06T01:43:20.629Z,53.50
2016-08-06T01:44:13.052Z,53.50
2016-08-06T01:46:18.166Z,53.40
2016-08-06T01:47:25.931Z,53.40
2016-08-06T01:48:19.543Z,53.50
2016-08-06T01:49:13.486Z,53.40
2016-08-06T01:50:22.018Z,53.40
2016-08-06T01:51:22.063Z,53.50
2016-08-06T01:52:20.922Z,53.40
2016-08-06T01:53:27.997Z,53.40
2016-08-06T01:54:26.320Z,53.40
2016-08-06T01:55:25.584Z,53.40
2016-08-06T01:56:26.102Z,53.50
2016-08-06T01:57:37.000Z,53.50
2016-08-06T01:58:25.778Z,53.40
2016-08-06T01:59:26.804Z,53.50
2016-08-06T02:01:28.751Z,53.50
2016-08-06T02:02:28.638Z,53.50
2016-08-06T02:03:33.888Z,53.40
2016-08-06T02:04:14.669Z,is
2016-08-06T02:05:27.816Z,53.50
2016-08-06T02:06:25.123Z,53.50
2016-08-06T02:07:32.184Z,53.50
2016-08-06T02:08:25.944Z,53.40
2016-08-06T02:09:28.220Z,53.50
2016-08-06T02:10:21.839Z,53.40
2016-08-06T02:11:21.988Z,53.40
2016-08-06T02:12:23.198Z,53.40
2016-08-06T02:13:16.600Z,is
2016-08-06T02:14:28.828Z,53.40
2016-08-06T02:15:22.865Z,53.40
2016-08-06T02:16:25.334Z,53.40
2016-08-06T02:17:27.175Z,53.40
2016-08-06T02:18:21.425Z,53.40
2016-08-06T02:19:31.491Z,53.40
2016-08-06T02:20:28.782Z,53.40
2016-08-06T02:21:28.358Z,53.40
2016-08-06T02:22:34.179Z,53.40
2016-08-06T02:23:27.219Z,53.40
2016-08-06T02:24:36.148Z,53.40
2016-08-06T02:25:27.399Z,53.50
2016-08-06T02:26:22.698Z,53.40
2016-08-06T02:27:24.411Z,53.40
2016-08-06T02:28:26.309Z,53.30
2016-08-06T02:29:19.546Z,53.40
2016-08-06T02:30:15.858Z,53.50
2016-08-06T02:31:21.025Z,53.40
2016-08-06T02:32:26.530Z,53.40
2016-08-06T02:33:21.820Z,53.40
2016-08-06T02:34:23.095Z,53.40
2016-08-06T02:35:27.697Z,53.50
2016-08-06T02:36:22.648Z,is
2016-08-06T02:37:18.329Z,53.40
2016-08-06T02:38:28.231Z,53.40
2016-08-06T02:39:26.383Z,53.40
2016-08-06T02:40:26.118Z,53.40
2016-08-06T02:41:16.316Z,53.50
2016-08-06T02:42:27.334Z,53.40
2016-08-06T02:43:27.463Z,53.50
2016-08-06T02:44:20.435Z,53.40
2016-08-06T02:45:23.262Z,53.40
2016-08-06T02:46:13.517Z,53.40
2016-08-06T02:47:20.729Z,53.30
2016-08-06T02:48:28.460Z,53.40
2016-08-06T02:49:20.618Z,53.30
2016-08-06T02:50:22.410Z,53.40
2016-08-06T02:51:22.579Z,53.40
2016-08-06T02:52:29.026Z,53.40
2016-08-06T02:53:26.645Z,53.30
2016-08-06T02:54:32.434Z,53.30
2016-08-06T02:55:26.854Z,53.40
2016-08-06T02:56:28.084Z,53.30
2016-08-06T02:57:14.187Z,53.40
2016-08-06T02:58:28.309Z,53.40
2016-08-06T02:59:15.551Z,is
2016-08-06T03:00:18.817Z,53.20
2016-08-06T03:01:16.748Z,53.40
2016-08-06T03:02:30.371Z,53.40
2016-08-06T03:03:16.636Z,53.40
2016-08-06T03:04:21.659Z,53.30
2016-08-06T03:05:30.435Z,53.40
2016-08-06T03:06:16.615Z,is
2016-08-06T03:07:14.286Z,53.30
2016-08-06T03:08:21.050Z,53.30
2016-08-06T03:09:31.251Z,53.50
2016-08-06T03:10:26.798Z,53.50
2016-08-06T03:11:21.546Z,53.40
2016-08-06T03:12:24.445Z,53.40
2016-08-06T03:13:27.060Z,53.50
2016-08-06T03:14:26.337Z,53.30
2016-08-06T03:15:14.252Z,53.40
2016-08-06T03:16:14.442Z,53.40
2016-08-06T03:17:22.011Z,53.40
2016-08-06T03:18:23.105Z,53.40
2016-08-06T03:19:26.576Z,53.40
2016-08-06T03:20:22.311Z,is
2016-08-06T03:21:18.883Z,53.40
2016-08-06T03:22:16.705Z,53.60
2016-08-06T03:23:26.015Z,53.40
2016-08-06T03:24:24.576Z,53.40
2016-08-06T03:25:28.317Z,53.40
2016-08-06T03:26:21.259Z,53.40
2016-08-06T03:27:27.350Z,53.40
2016-08-06T03:28:22.686Z,53.40
2016-08-06T03:29:21.740Z,53.40
2016-08-06T03:30:28.314Z,53.40
2016-08-06T03:31:22.367Z,53.40
2016-08-06T03:32:27.409Z,53.40
2016-08-06T03:33:20.394Z,53.40
2016-08-06T03:34:22.740Z,53.50
2016-08-06T03:35:20.973Z,53.40
2016-08-06T03:36:25.402Z,is
2016-08-06T03:37:27.307Z,53.40
2016-08-06T03:38:31.351Z,53.40
2016-08-06T03:39:25.364Z,53.40
2016-08-06T03:40:27.786Z,53.40
2016-08-06T03:41:23.669Z,53.40
2016-08-06T03:42:23.952Z,53.40
2016-08-06T03:43:28.455Z,53.40
2016-08-06T03:44:34.462Z,53.50
2016-08-06T03:45:14.073Z,53.40
2016-08-06T03:46:29.570Z,53.40
2016-08-06T03:47:25.818Z,53.50
2016-08-06T03:48:29.193Z,53.50
2016-08-06T03:49:20.772Z,53.40
2016-08-06T03:50:18.489Z,53.30
2016-08-06T03:51:21.210Z,53.40
2016-08-06T03:52:28.422Z,53.40
2016-08-06T03:53:25.439Z,53.40
2016-08-06T03:54:19.162Z,53.40
2016-08-06T03:55:25.062Z,53.40
2016-08-06T03:56:23.689Z,53.40
2016-08-06T03:57:26.557Z,53.40
2016-08-06T03:58:20.639Z,53.40
2016-08-06T03:59:27.611Z,53.40
2016-08-06T04:00:35.463Z,53.40
2016-08-06T04:01:26.811Z,53.40
2016-08-06T04:02:22.101Z,53.50
2016-08-06T04:03:27.910Z,53.40
2016-08-06T04:04:27.376Z,53.40
2016-08-06T04:05:19.535Z,53.40
2016-08-06T04:06:28.260Z,53.40
2016-08-06T04:07:29.221Z,53.40
2016-08-06T04:08:24.871Z,is
2016-08-06T04:09:24.229Z,53.50
2016-08-06T04:10:27.763Z,53.40
2016-08-06T04:11:27.446Z,53.40
2016-08-06T04:12:24.714Z,53.40
2016-08-06T04:13:22.401Z,53.40
2016-08-06T04:14:22.689Z,53.30
2016-08-06T04:15:28.004Z,53.40
2016-08-06T04:16:17.281Z,53.30
2016-08-06T04:17:14.103Z,53.50
2016-08-06T04:18:32.392Z,53.30
2016-08-06T04:19:21.757Z,53.40
2016-08-06T04:20:17.883Z,53.50
2016-08-06T04:21:19.814Z,is
2016-08-06T04:22:19.103Z,53.40
2016-08-06T04:23:21.000Z,53.40
2016-08-06T04:24:21.976Z,53.40
2016-08-06T04:25:26.554Z,53.40
2016-08-06T04:26:12.006Z,53.40
2016-08-06T04:27:25.570Z,53.40
2016-08-06T04:28:28.705Z,53.40
2016-08-06T04:29:22.844Z,53.40
2016-08-06T04:30:17.677Z,53.50
2016-08-06T04:31:20.618Z,53.40
2016-08-06T04:32:24.923Z,53.40
2016-08-06T04:33:28.888Z,53.50
2016-08-06T04:34:26.740Z,53.80
2016-08-06T04:35:27.312Z,53.40
2016-08-06T04:36:21.965Z,53.30
2016-08-06T04:37:29.083Z,53.50
2016-08-06T04:38:21.233Z,53.50
2016-08-06T04:39:20.859Z,53.40
2016-08-06T04:40:20.288Z,53.30
2016-08-06T04:41:14.368Z,53.40
2016-08-06T04:42:13.419Z,53.30
2016-08-06T04:43:35.118Z,53.40
2016-08-06T04:44:15.889Z,53.50
2016-08-06T04:45:27.090Z,53.30
2016-08-06T04:47:24.914Z,53.30
2016-08-06T04:48:27.340Z,53.50
2016-08-06T04:49:13.130Z,53.30
2016-08-06T04:50:21.783Z,is
2016-08-06T04:51:22.677Z,53.40
2016-08-06T04:52:28.668Z,53.40
2016-08-06T04:53:34.012Z,53.30
2016-08-06T04:54:28.148Z,53.30
2016-08-06T04:55:26.585Z,53.40
2016-08-06T04:56:24.634Z,53.30
2016-08-06T04:57:12.837Z,53.40
2016-08-06T04:58:24.820Z,53.40
2016-08-06T04:59:15.912Z,53.40
2016-08-06T05:00:22.343Z,53.30
2016-08-06T05:01:22.671Z,53.40
2016-08-06T05:02:24.776Z,53.40
2016-08-06T05:03:32.911Z,53.30
2016-08-06T05:04:22.094Z,53.30
2016-08-06T05:05:27.513Z,53.30
2016-08-06T05:06:24.858Z,53.40
2016-08-06T05:07:20.095Z,53.40
2016-08-06T05:08:22.467Z,53.30
2016-08-06T05:09:27.327Z,53.40
2016-08-06T05:10:27.466Z,53.30
2016-08-06T05:11:28.630Z,53.40
2016-08-06T05:12:21.962Z,53.30
2016-08-06T05:13:26.151Z,53.40
2016-08-06T05:14:23.027Z,53.40
2016-08-06T05:15:12.820Z,53.30
2016-08-06T05:17:17.721Z,53.30
2016-08-06T05:18:11.408Z,is
2016-08-06T05:19:24.291Z,53.40
2016-08-06T05:20:22.032Z,53.40
2016-08-06T05:21:25.556Z,53.40
2016-08-06T05:22:29.232Z,53.50
2016-08-06T05:23:18.573Z,53.30
2016-08-06T05:24:32.272Z,52.90
2016-08-06T05:25:19.706Z,53.40
2016-08-06T05:26:27.939Z,53.40
2016-08-06T05:27:18.150Z,is
2016-08-06T05:28:23.479Z,53.40
2016-08-06T05:29:26.448Z,53.50
2016-08-06T05:30:22.899Z,53.40
2016-08-06T05:32:28.703Z,53.40
2016-08-06T05:33:19.437Z,53.40
2016-08-06T05:34:16.471Z,53.40
2016-08-06T05:35:16.417Z,53.50
2016-08-06T05:36:26.211Z,53.40
2016-08-06T05:37:33.611Z,53.40
2016-08-06T05:38:21.154Z,53.30
2016-08-06T05:39:21.957Z,53.40
2016-08-06T05:40:26.714Z,53.50
2016-08-06T05:41:31.443Z,53.40
2016-08-06T05:42:28.120Z,53.40
2016-08-06T05:43:22.639Z,53.50
2016-08-06T05:44:15.258Z,53.40
2016-08-06T05:45:28.450Z,53.60
2016-08-06T05:46:14.242Z,53.40
2016-08-06T05:47:28.243Z,53.40
2016-08-06T05:48:27.690Z,53.40
2016-08-06T05:49:14.229Z,53.40
2016-08-06T05:50:22.092Z,53.40
2016-08-06T05:51:35.119Z,53.40
2016-08-06T05:52:28.078Z,53.40
2016-08-06T05:53:26.115Z,53.40
2016-08-06T05:54:24.610Z,53.40
2016-08-06T05:55:23.087Z,53.40
2016-08-06T05:56:19.582Z,53.40
2016-08-06T05:57:27.661Z,53.40
2016-08-06T05:58:27.417Z,53.40
2016-08-06T05:59:27.837Z,53.40
2016-08-06T06:00:25.633Z,53.40
2016-08-06T06:02:31.473Z,53.40
2016-08-06T06:03:12.651Z,53.90
2016-08-06T06:04:14.174Z,53.40
2016-08-06T06:05:20.156Z,53.40
2016-08-06T06:06:23.093Z,53.40
2016-08-06T06:07:12.092Z,is
2016-08-06T06:08:16.394Z,53.40
2016-08-06T06:09:22.031Z,53.40
2016-08-06T06:10:27.009Z,53.40
2016-08-06T06:11:12.214Z,53.40
2016-08-06T06:12:22.493Z,53.40
2016-08-06T06:13:27.553Z,53.50
2016-08-06T06:14:21.698Z,53.50
2016-08-06T06:15:19.686Z,53.50
2016-08-06T06:16:22.622Z,53.40
2016-08-06T06:17:27.709Z,53.50
2016-08-06T06:18:21.607Z,is
2016-08-06T06:19:27.306Z,53.40
2016-08-06T06:20:20.293Z,53.50
2016-08-06T06:21:23.121Z,53.40
2016-08-06T06:22:13.398Z,53.40
2016-08-06T06:23:14.785Z,53.40
2016-08-06T06:24:26.772Z,53.40
2016-08-06T06:25:27.908Z,53.40
2016-08-06T06:26:34.279Z,53.50
2016-08-06T06:27:25.421Z,53.50
2016-08-06T06:28:29.443Z,53.50
2016-08-06T06:29:14.210Z,53.50
2016-08-06T06:30:31.847Z,53.40
2016-08-06T06:31:26.199Z,53.40
2016-08-06T06:32:26.109Z,53.50
2016-08-06T06:33:20.521Z,53.40
2016-08-06T06:34:27.717Z,53.40
2016-08-06T06:35:32.569Z,53.40
2016-08-06T06:36:11.980Z,53.40
2016-08-06T06:37:27.112Z,53.40
2016-08-06T06:38:13.805Z,53.40
2016-08-06T06:39:27.393Z,53.40
2016-08-06T06:40:22.321Z,53.40
2016-08-06T06:41:16.341Z,53.40
2016-08-06T06:42:22.301Z,53.40
2016-08-06T06:43:23.111Z,53.40
2016-08-06T06:44:22.928Z,53.40
2016-08-06T06:45:21.791Z,53.50
2016-08-06T06:46:30.304Z,53.40
2016-08-06T06:47:18.760Z,53.50
2016-08-06T06:48:15.277Z,53.40
2016-08-06T06:49:25.088Z,53.50
2016-08-06T06:50:21.667Z,53.40
2016-08-06T06:51:23.011Z,53.40
2016-08-06T06:52:32.591Z,53.50
2016-08-06T06:53:17.326Z,53.40
2016-08-06T06:54:12.731Z,53.40
2016-08-06T06:55:13.676Z,53.50
2016-08-06T06:56:27.486Z,53.40
2016-08-06T06:57:21.463Z,53.50
2016-08-06T06:58:14.860Z,53.70
2016-08-06T06:59:21.869Z,53.70
2016-08-06T07:00:21.284Z,53.80
2016-08-06T07:01:20.690Z,53.90
2016-08-06T07:02:22.008Z,53.90
2016-08-06T07:03:22.020Z,53.90
2016-08-06T07:04:24.922Z,54.00
2016-08-06T07:05:20.828Z,54.10
2016-08-06T07:06:15.366Z,54.10
2016-08-06T07:07:21.779Z,54.10
2016-08-06T07:08:22.772Z,54.10
2016-08-06T07:09:24.137Z,54.20
2016-08-06T07:10:20.251Z,54.20
2016-08-06T07:11:22.909Z,54.20
2016-08-06T07:12:19.588Z,54.20
2016-08-06T07:13:23.028Z,54.20
2016-08-06T07:14:11.695Z,54.20
2016-08-06T07:15:23.193Z,54.20
2016-08-06T07:16:20.329Z,is
2016-08-06T07:17:13.778Z,54.40
2016-08-06T07:18:10.256Z,is
2016-08-06T07:19:17.593Z,54.30
2016-08-06T07:20:22.778Z,54.30
2016-08-06T07:21:21.422Z,54.60
2016-08-06T07:22:15.635Z,54.50
2016-08-06T07:23:21.164Z,54.80
2016-08-06T07:24:20.546Z,54.90
2016-08-06T07:25:22.298Z,55.00
2016-08-06T07:26:19.888Z,55.20
2016-08-06T07:27:21.693Z,55.00
2016-08-06T07:28:20.549Z,55.10
2016-08-06T07:29:20.277Z,55.10
2016-08-06T07:30:23.339Z,55.30
2016-08-06T07:31:22.524Z,55.30
2016-08-06T07:32:20.108Z,is
2016-08-06T07:33:21.991Z,55.40
2016-08-06T07:34:27.754Z,55.40
2016-08-06T07:35:19.393Z,55.30
2016-08-06T07:36:18.058Z,55.30
2016-08-06T07:37:18.948Z,55.30
2016-08-06T07:38:21.361Z,55.20
2016-08-06T07:39:21.213Z,55.50
2016-08-06T07:40:20.984Z,55.40
2016-08-06T07:41:20.680Z,55.30
2016-08-06T07:42:26.898Z,55.30
2016-08-06T07:43:39.415Z,55.50
2016-08-06T07:44:29.225Z,55.40
2016-08-06T07:45:12.802Z,55.30
2016-08-06T07:46:23.202Z,55.20
2016-08-06T07:47:14.885Z,55.40
2016-08-06T07:48:13.588Z,55.30
2016-08-06T07:49:22.850Z,55.40
2016-08-06T07:50:16.862Z,55.40
2016-08-06T07:51:20.778Z,55.40
2016-08-06T07:52:25.595Z,55.00
2016-08-06T07:53:21.798Z,55.10
2016-08-06T07:54:13.405Z,55.20
2016-08-06T07:55:12.352Z,55.20
2016-08-06T07:56:26.583Z,55.20
2016-08-06T07:57:22.324Z,55.20
2016-08-06T07:58:25.893Z,55.20
2016-08-06T07:59:26.322Z,55.20
2016-08-06T08:00:25.491Z,55.20
2016-08-06T08:01:21.008Z,54.90
2016-08-06T08:02:22.186Z,55.20
2016-08-06T08:03:12.476Z,55.10
2016-08-06T08:04:24.657Z,55.10
2016-08-06T08:05:27.022Z,55.20
2016-08-06T08:06:27.715Z,55.20
2016-08-06T08:07:12.813Z,55.20
2016-08-06T08:08:35.531Z,55.20
2016-08-06T08:09:22.028Z,55.40
2016-08-06T08:10:20.180Z,55.20
2016-08-06T08:11:27.056Z,54.50
2016-08-06T08:12:22.801Z,52.80
2016-08-06T08:13:22.021Z,is
2016-08-06T08:14:18.962Z,is
2016-08-06T08:15:22.863Z,51.40
2016-08-06T08:16:21.918Z,51.60
2016-08-06T08:17:32.395Z,51.40
2016-08-06T08:18:21.781Z,is
2016-08-06T08:19:22.258Z,51.60
2016-08-06T08:20:28.561Z,51.90
2016-08-06T08:21:20.835Z,52.00
2016-08-06T08:22:20.900Z,52.40
2016-08-06T08:23:21.049Z,52.00
2016-08-06T08:24:20.190Z,52.60
2016-08-06T08:25:20.003Z,52.50
2016-08-06T08:26:15.896Z,52.50
2016-08-06T08:27:23.442Z,52.50
2016-08-06T08:28:18.788Z,52.70
2016-08-06T08:29:28.405Z,52.50
2016-08-06T08:30:29.740Z,52.60
2016-08-06T08:31:24.368Z,52.40
2016-08-06T08:33:26.746Z,51.50
2016-08-06T08:34:32.560Z,51.90
2016-08-06T08:35:27.410Z,51.80
2016-08-06T08:36:27.683Z,is
2016-08-06T08:37:27.886Z,51.50
2016-08-06T08:38:26.083Z,51.60
2016-08-06T08:39:28.612Z,51.40
2016-08-06T08:40:26.707Z,51.40
2016-08-06T08:41:28.079Z,51.30
2016-08-06T08:42:30.648Z,51.60
2016-08-06T08:43:15.565Z,51.80
2016-08-06T08:44:28.137Z,52.10
2016-08-06T08:45:22.359Z,51.70
2016-08-06T08:46:28.154Z,51.50
2016-08-06T08:47:27.696Z,51.60
2016-08-06T08:48:26.757Z,51.40
2016-08-06T08:49:26.633Z,51.40
2016-08-06T08:50:25.785Z,51.10
2016-08-06T08:51:28.360Z,50.70
2016-08-06T08:52:23.857Z,51.10
2016-08-06T08:53:22.587Z,51.10
2016-08-06T08:54:19.486Z,51.20
2016-08-06T08:55:38.862Z,51.50
2016-08-06T08:56:26.306Z,51.50
2016-08-06T08:57:28.507Z,51.30
2016-08-06T08:58:27.596Z,51.60
2016-08-06T08:59:28.122Z,51.50
2016-08-06T09:00:17.896Z,51.50
2016-08-06T09:01:23.179Z,51.50
2016-08-06T09:02:31.520Z,51.50
2016-08-06T09:03:21.009Z,51.50
2016-08-06T09:04:31.780Z,51.50
2016-08-06T09:05:27.736Z,51.50
2016-08-06T09:06:20.087Z,51.60
2016-08-06T09:07:28.784Z,51.70
2016-08-06T09:08:21.657Z,51.50
2016-08-06T09:09:26.770Z,51.40
2016-08-06T09:10:17.617Z,51.20
2016-08-06T09:11:25.325Z,51.20
2016-08-06T09:12:15.379Z,51.40
2016-08-06T09:13:21.067Z,51.30
2016-08-06T09:14:22.555Z,51.70
2016-08-06T09:15:30.258Z,51.00
2016-08-06T09:16:23.112Z,50.50
2016-08-06T09:17:17.183Z,51.30
2016-08-06T09:18:26.441Z,51.20
2016-08-06T09:19:22.127Z,51.20
2016-08-06T09:20:21.807Z,51.20
2016-08-06T09:21:22.578Z,52.00
2016-08-06T09:22:25.495Z,52.10
2016-08-06T09:23:24.957Z,52.20
2016-08-06T09:24:17.258Z,52.60
2016-08-06T09:25:16.767Z,51.90
2016-08-06T09:26:23.175Z,51.80
2016-08-06T09:27:24.293Z,51.60
2016-08-06T09:28:25.867Z,52.00
2016-08-06T09:29:33.134Z,51.70
2016-08-06T09:30:21.983Z,51.70
2016-08-06T09:31:28.066Z,51.70
2016-08-06T09:32:19.789Z,51.80
2016-08-06T09:33:17.087Z,51.70
2016-08-06T09:34:14.012Z,51.70
2016-08-06T09:35:23.308Z,51.90
2016-08-06T09:36:20.754Z,51.80
2016-08-06T09:37:27.488Z,51.80
2016-08-06T09:38:20.559Z,51.90
2016-08-06T09:39:23.095Z,51.70
2016-08-06T09:40:21.682Z,51.90
2016-08-06T09:41:15.794Z,51.80
2016-08-06T09:42:18.370Z,52.00
2016-08-06T09:43:23.078Z,51.80
2016-08-06T09:44:26.509Z,51.90
2016-08-06T09:45:20.961Z,51.80
2016-08-06T09:46:22.315Z,51.80
2016-08-06T09:48:20.363Z,51.90
2016-08-06T09:49:25.195Z,52.00
2016-08-06T09:50:18.549Z,52.00
2016-08-06T09:51:24.340Z,52.00
2016-08-06T09:52:21.717Z,52.00
2016-08-06T09:53:22.606Z,51.90
2016-08-06T09:54:22.919Z,52.00
2016-08-06T09:55:18.438Z,51.90
2016-08-06T09:56:27.840Z,52.00
2016-08-06T09:57:20.046Z,51.90
2016-08-06T09:58:16.272Z,52.00
2016-08-06T09:59:13.101Z,52.20
2016-08-06T10:00:26.290Z,52.00
2016-08-06T10:01:20.321Z,51.90
2016-08-06T10:02:21.248Z,52.00
2016-08-06T10:03:27.734Z,51.90
2016-08-06T10:04:21.594Z,51.90
2016-08-06T10:05:14.182Z,51.90
2016-08-06T10:06:22.355Z,52.00
2016-08-06T10:07:20.485Z,51.90
2016-08-06T10:08:17.016Z,51.90
2016-08-06T10:09:20.745Z,51.90
2016-08-06T10:10:24.598Z,51.90
2016-08-06T10:11:26.741Z,51.80
2016-08-06T10:12:22.285Z,52.00
2016-08-06T10:13:22.969Z,51.90
2016-08-06T10:14:11.794Z,51.90
2016-08-06T10:15:28.494Z,52.00
2016-08-06T10:16:28.768Z,52.20
2016-08-06T10:17:17.051Z,52.20
2016-08-06T10:18:15.985Z,52.20
2016-08-06T10:19:19.818Z,52.30
2016-08-06T10:20:16.770Z,52.30
2016-08-06T10:21:17.198Z,52.50
2016-08-06T10:22:15.929Z,52.70
2016-08-06T10:23:22.962Z,52.80
2016-08-06T10:24:21.955Z,52.90
2016-08-06T10:25:27.947Z,53.20
2016-08-06T10:26:16.295Z,is
2016-08-06T10:27:24.513Z,53.10
2016-08-06T10:28:22.569Z,is
2016-08-06T10:29:28.401Z,53.20
2016-08-06T10:30:16.523Z,53.30
2016-08-06T10:31:27.620Z,53.40
2016-08-06T10:32:17.251Z,53.30
2016-08-06T10:33:12.593Z,53.30
2016-08-06T10:34:14.294Z,53.40
2016-08-06T10:35:14.730Z,53.30
2016-08-06T10:36:14.264Z,53.40
2016-08-06T10:37:27.682Z,53.40
2016-08-06T10:38:25.396Z,53.50
2016-08-06T10:39:13.499Z,53.40
2016-08-06T10:40:15.279Z,53.50
2016-08-06T10:41:26.246Z,53.50
2016-08-06T10:42:22.067Z,53.40
2016-08-06T10:43:20.059Z,54.10
2016-08-06T10:44:18.419Z,is
2016-08-06T10:45:23.968Z,53.40
2016-08-06T10:46:20.489Z,53.40
2016-08-06T10:47:19.601Z,53.40
2016-08-06T10:48:21.646Z,53.30
2016-08-06T10:49:24.923Z,53.40
2016-08-06T10:50:18.461Z,53.40
2016-08-06T10:51:24.692Z,53.40
2016-08-06T10:52:10.666Z,is
2016-08-06T10:53:21.030Z,53.40
2016-08-06T10:54:13.800Z,53.40
2016-08-06T10:55:23.281Z,53.50
2016-08-06T10:56:27.399Z,53.40
2016-08-06T10:57:23.629Z,53.50
2016-08-06T10:58:16.432Z,53.50
2016-08-06T10:59:27.320Z,53.40
2016-08-06T11:00:22.149Z,53.50
2016-08-06T11:01:16.019Z,53.30
2016-08-06T11:02:12.346Z,53.30
2016-08-06T11:03:21.681Z,53.30
2016-08-06T11:04:17.213Z,53.40
2016-08-06T11:05:19.338Z,53.40
2016-08-06T11:06:20.857Z,53.40
2016-08-06T11:07:19.382Z,53.30
2016-08-06T11:08:15.007Z,53.40
2016-08-06T11:09:17.001Z,52.70
2016-08-06T11:10:21.094Z,53.50
2016-08-06T11:11:17.227Z,53.30
2016-08-06T11:12:13.538Z,53.30
2016-08-06T11:13:25.080Z,53.50
2016-08-06T11:14:21.363Z,53.30
2016-08-06T11:15:21.232Z,53.30
2016-08-06T11:16:22.497Z,53.30
2016-08-06T11:17:19.843Z,53.50
2016-08-06T11:18:18.143Z,53.30
2016-08-06T11:19:25.806Z,53.40
2016-08-06T11:20:26.144Z,53.50
2016-08-06T11:21:22.028Z,53.30
2016-08-06T11:22:14.924Z,53.30
2016-08-06T11:23:19.834Z,53.40
2016-08-06T11:24:13.625Z,53.40
2016-08-06T11:25:15.122Z,53.30
2016-08-06T11:26:13.262Z,53.40
2016-08-06T11:27:20.146Z,53.40
2016-08-06T11:28:16.367Z,is
2016-08-06T11:29:20.686Z,53.50
2016-08-06T11:30:23.494Z,53.40
2016-08-06T11:31:23.252Z,53.50
2016-08-06T11:32:24.844Z,53.30
2016-08-06T11:33:26.260Z,53.30
2016-08-06T11:34:22.344Z,53.30
2016-08-06T11:35:18.551Z,53.30
2016-08-06T11:36:17.051Z,53.40
2016-08-06T11:37:20.146Z,53.50
2016-08-06T11:38:11.525Z,53.30
2016-08-06T11:39:18.979Z,53.30
2016-08-06T11:40:27.918Z,53.50
2016-08-06T11:41:18.309Z,53.40
2016-08-06T11:42:17.242Z,53.40
2016-08-06T11:43:22.299Z,53.40
2016-08-06T11:44:19.868Z,53.40
2016-08-06T11:45:13.829Z,53.30
2016-08-06T11:46:28.263Z,53.30
2016-08-06T11:47:21.136Z,53.40
2016-08-06T11:48:13.516Z,53.40
2016-08-06T11:49:13.224Z,53.30
2016-08-06T11:50:17.534Z,53.50
2016-08-06T11:51:14.822Z,53.20
2016-08-06T11:52:17.193Z,53.40
2016-08-06T11:53:22.550Z,53.40
2016-08-06T11:54:16.398Z,53.20
2016-08-06T11:55:18.391Z,53.30
2016-08-06T11:56:16.335Z,53.20
2016-08-06T11:57:27.186Z,53.30
2016-08-06T11:58:23.458Z,53.30
2016-08-06T11:59:22.199Z,53.30
2016-08-06T12:00:16.858Z,53.30
2016-08-06T12:01:17.092Z,53.10
2016-08-06T12:02:20.848Z,53.60
2016-08-06T12:03:15.547Z,53.20
2016-08-06T12:04:15.858Z,53.20
2016-08-06T12:05:30.548Z,53.10
2016-08-06T12:06:12.476Z,53.20
2016-08-06T12:07:21.636Z,53.10
2016-08-06T12:08:23.504Z,53.00
2016-08-06T12:09:21.755Z,53.20
2016-08-06T12:10:26.970Z,53.20
2016-08-06T12:11:20.455Z,53.00
2016-08-06T12:12:17.155Z,53.10
2016-08-06T12:13:18.116Z,53.00
2016-08-06T12:14:16.852Z,53.20
2016-08-06T12:15:17.117Z,is
2016-08-06T12:16:22.909Z,53.10
2016-08-06T12:17:28.092Z,53.10
2016-08-06T12:18:22.158Z,53.20
2016-08-06T12:19:21.333Z,52.90
2016-08-06T12:20:27.023Z,53.00
2016-08-06T12:21:16.656Z,53.00
2016-08-06T12:22:24.099Z,53.10
2016-08-06T12:23:20.269Z,53.00
2016-08-06T12:24:23.417Z,53.00
2016-08-06T12:25:23.143Z,53.00
2016-08-06T12:26:19.373Z,53.00
2016-08-06T12:27:32.361Z,53.10
2016-08-06T12:28:15.939Z,53.10
2016-08-06T12:29:22.320Z,53.00
2016-08-06T12:30:27.710Z,53.00
2016-08-06T12:31:11.854Z,53.00
2016-08-06T12:32:24.597Z,53.00
2016-08-06T12:33:26.861Z,53.10
2016-08-06T12:34:39.699Z,53.10
2016-08-06T12:35:22.015Z,53.10
2016-08-06T12:36:32.928Z,53.20
2016-08-06T12:37:20.637Z,53.10
2016-08-06T12:38:15.550Z,53.10
2016-08-06T12:39:21.961Z,53.10
2016-08-06T12:40:15.141Z,52.90
2016-08-06T12:41:17.401Z,53.00
2016-08-06T12:42:17.252Z,53.10
2016-08-06T12:43:22.043Z,53.00
2016-08-06T12:44:14.094Z,53.20
2016-08-06T12:45:13.229Z,53.10
2016-08-06T12:46:17.187Z,53.10
2016-08-06T12:47:20.465Z,is
2016-08-06T12:48:21.450Z,53.20
2016-08-06T12:49:14.386Z,53.10
2016-08-06T12:50:11.894Z,is
2016-08-06T12:51:21.810Z,53.00
2016-08-06T12:52:24.885Z,53.10
2016-08-06T12:53:18.124Z,53.20
2016-08-06T12:54:20.520Z,53.20
2016-08-06T12:55:21.803Z,53.10
2016-08-06T12:56:15.913Z,53.10
2016-08-06T12:57:21.041Z,53.10
2016-08-06T12:58:15.031Z,53.20
2016-08-06T12:59:22.581Z,53.10
2016-08-06T13:00:12.139Z,53.10
2016-08-06T13:01:14.235Z,53.10
2016-08-06T13:02:12.633Z,53.10
2016-08-06T13:03:27.969Z,53.10
2016-08-06T13:04:21.465Z,53.00